sensor_id;sensor_type;location;lat;lon;timestamp;temperature;humidity
64705;DHT22;51131;52.298;13.686;2023-04-25T00:00:14;19.10;58.90
64705;DHT22;51131;52.298;13.686;2023-04-25T00:02:41;19.10;59.10
64705;DHT22;51131;52.298;13.686;2023-04-25T00:05:08;19.20;59.50
64705;DHT22;51131;52.298;13.686;2023-04-25T00:07:34;19.10;59.00
64705;DHT22;51131;52.298;13.686;2023-04-25T00:10:01;19.10;59.10
64705;DHT22;51131;52.298;13.686;2023-04-25T00:12:28;19.00;59.30
64705;DHT22;51131;52.298;13.686;2023-04-25T00:14:55;19.00;59.70
64705;DHT22;51131;52.298;13.686;2023-04-25T00:17:23;19.00;59.40
64705;DHT22;51131;52.298;13.686;2023-04-25T00:19:53;19.00;59.30
64705;DHT22;51131;52.298;13.686;2023-04-25T00:22:20;19.10;59.50
64705;DHT22;51131;52.298;13.686;2023-04-25T00:24:46;19.00;59.30
64705;DHT22;51131;52.298;13.686;2023-04-25T00:27:13;19.00;58.90
64705;DHT22;51131;52.298;13.686;2023-04-25T00:29:40;19.00;59.10
64705;DHT22;51131;52.298;13.686;2023-04-25T00:32:06;19.00;59.00
64705;DHT22;51131;52.298;13.686;2023-04-25T00:34:33;19.00;59.10
64705;DHT22;51131;52.298;13.686;2023-04-25T00:37:00;19.20;59.70
64705;DHT22;51131;52.298;13.686;2023-04-25T00:39:28;19.00;59.00
64705;DHT22;51131;52.298;13.686;2023-04-25T00:41:55;19.00;59.50
64705;DHT22;51131;52.298;13.686;2023-04-25T00:44:21;18.90;59.30
64705;DHT22;51131;52.298;13.686;2023-04-25T00:46:48;18.90;59.50
64705;DHT22;51131;52.298;13.686;2023-04-25T00:49:16;18.90;59.70
64705;DHT22;51131;52.298;13.686;2023-04-25T00:51:43;18.90;59.50
64705;DHT22;51131;52.298;13.686;2023-04-25T00:54:11;19.10;59.60
64705;DHT22;51131;52.298;13.686;2023-04-25T00:56:39;19.00;58.80
64705;DHT22;51131;52.298;13.686;2023-04-25T00:59:05;19.00;58.60
64705;DHT22;51131;52.298;13.686;2023-04-25T01:01:32;19.00;58.70
64705;DHT22;51131;52.298;13.686;2023-04-25T01:03:59;18.90;58.60
64705;DHT22;51131;52.298;13.686;2023-04-25T01:06:27;18.90;58.80
64705;DHT22;51131;52.298;13.686;2023-04-25T01:08:54;19.00;59.30
64705;DHT22;51131;52.298;13.686;2023-04-25T01:11:20;19.00;58.70
64705;DHT22;51131;52.298;13.686;2023-04-25T01:13:47;18.90;58.70
64705;DHT22;51131;52.298;13.686;2023-04-25T01:16:14;18.90;58.90
64705;DHT22;51131;52.298;13.686;2023-04-25T01:18:41;18.90;58.70
64705;DHT22;51131;52.298;13.686;2023-04-25T01:21:08;18.90;58.90
64705;DHT22;51131;52.298;13.686;2023-04-25T01:23:37;18.90;59.60
64705;DHT22;51131;52.298;13.686;2023-04-25T01:26:04;18.90;59.20
64705;DHT22;51131;52.298;13.686;2023-04-25T01:28:32;18.90;58.60
64705;DHT22;51131;52.298;13.686;2023-04-25T01:30:59;18.90;58.50
64705;DHT22;51131;52.298;13.686;2023-04-25T01:33:26;19.00;59.40
64705;DHT22;51131;52.298;13.686;2023-04-25T01:35:52;18.90;59.00
64705;DHT22;51131;52.298;13.686;2023-04-25T01:38:19;18.90;58.50
64705;DHT22;51131;52.298;13.686;2023-04-25T01:40:46;18.90;58.60
64705;DHT22;51131;52.298;13.686;2023-04-25T01:43:15;18.90;58.60
64705;DHT22;51131;52.298;13.686;2023-04-25T01:45:42;18.90;58.50
64705;DHT22;51131;52.298;13.686;2023-04-25T01:48:09;18.90;58.70
64705;DHT22;51131;52.298;13.686;2023-04-25T01:50:37;18.80;58.60
64705;DHT22;51131;52.298;13.686;2023-04-25T01:53:03;18.80;58.40
64705;DHT22;51131;52.298;13.686;2023-04-25T01:55:30;18.90;59.40
64705;DHT22;51131;52.298;13.686;2023-04-25T01:57:57;18.90;59.30
64705;DHT22;51131;52.298;13.686;2023-04-25T02:00:24;19.00;58.30
64705;DHT22;51131;52.298;13.686;2023-04-25T02:02:51;18.90;58.60
64705;DHT22;51131;52.298;13.686;2023-04-25T02:05:20;18.90;59.30
64705;DHT22;51131;52.298;13.686;2023-04-25T02:07:47;18.90;59.20
64705;DHT22;51131;52.298;13.686;2023-04-25T02:10:14;18.90;58.70
64705;DHT22;51131;52.298;13.686;2023-04-25T02:12:41;19.00;58.80
64705;DHT22;51131;52.298;13.686;2023-04-25T02:15:08;19.00;58.20
64705;DHT22;51131;52.298;13.686;2023-04-25T02:17:34;19.00;57.90
64705;DHT22;51131;52.298;13.686;2023-04-25T02:20:01;19.10;57.60
64705;DHT22;51131;52.298;13.686;2023-04-25T02:22:27;19.10;57.40
64705;DHT22;51131;52.298;13.686;2023-04-25T02:24:56;19.10;57.90
64705;DHT22;51131;52.298;13.686;2023-04-25T02:27:23;19.10;57.90
64705;DHT22;51131;52.298;13.686;2023-04-25T02:29:49;19.00;58.20
64705;DHT22;51131;52.298;13.686;2023-04-25T02:32:16;19.20;58.20
64705;DHT22;51131;52.298;13.686;2023-04-25T02:34:43;19.10;58.30
64705;DHT22;51131;52.298;13.686;2023-04-25T02:37:09;19.10;58.50
64705;DHT22;51131;52.298;13.686;2023-04-25T02:39:36;19.00;58.10
64705;DHT22;51131;52.298;13.686;2023-04-25T02:42:03;19.00;58.20
64705;DHT22;51131;52.298;13.686;2023-04-25T02:44:29;19.00;58.70
64705;DHT22;51131;52.298;13.686;2023-04-25T02:46:56;19.00;58.00
64705;DHT22;51131;52.298;13.686;2023-04-25T02:49:22;19.00;58.40
64705;DHT22;51131;52.298;13.686;2023-04-25T02:51:49;18.90;58.70
64705;DHT22;51131;52.298;13.686;2023-04-25T02:54:16;19.00;59.00
64705;DHT22;51131;52.298;13.686;2023-04-25T02:56:42;19.00;58.30
64705;DHT22;51131;52.298;13.686;2023-04-25T02:59:09;19.00;58.20
64705;DHT22;51131;52.298;13.686;2023-04-25T03:01:35;19.00;58.30
64705;DHT22;51131;52.298;13.686;2023-04-25T03:04:02;19.00;58.70
64705;DHT22;51131;52.298;13.686;2023-04-25T03:06:29;19.00;58.10
64705;DHT22;51131;52.298;13.686;2023-04-25T03:08:55;19.00;58.50
64705;DHT22;51131;52.298;13.686;2023-04-25T03:11:23;19.00;58.60
64705;DHT22;51131;52.298;13.686;2023-04-25T03:13:50;19.00;58.30
64705;DHT22;51131;52.298;13.686;2023-04-25T03:16:16;19.00;58.30
64705;DHT22;51131;52.298;13.686;2023-04-25T03:18:43;18.90;57.90
64705;DHT22;51131;52.298;13.686;2023-04-25T03:21:10;18.90;58.30
64705;DHT22;51131;52.298;13.686;2023-04-25T03:23:36;18.90;58.10
64705;DHT22;51131;52.298;13.686;2023-04-25T03:26:03;18.90;58.80
64705;DHT22;51131;52.298;13.686;2023-04-25T03:28:30;18.90;58.70
64705;DHT22;51131;52.298;13.686;2023-04-25T03:30:57;19.00;58.50
64705;DHT22;51131;52.298;13.686;2023-04-25T03:33:24;18.90;58.30
64705;DHT22;51131;52.298;13.686;2023-04-25T03:35:50;18.90;58.40
64705;DHT22;51131;52.298;13.686;2023-04-25T03:38:17;18.90;58.60
64705;DHT22;51131;52.298;13.686;2023-04-25T03:40:44;18.70;58.30
64705;DHT22;51131;52.298;13.686;2023-04-25T03:43:10;18.90;58.20
64705;DHT22;51131;52.298;13.686;2023-04-25T03:45:37;18.90;58.30
64705;DHT22;51131;52.298;13.686;2023-04-25T03:48:04;18.90;58.00
64705;DHT22;51131;52.298;13.686;2023-04-25T03:50:31;18.90;58.30
64705;DHT22;51131;52.298;13.686;2023-04-25T03:52:57;18.90;58.10
64705;DHT22;51131;52.298;13.686;2023-04-25T03:55:24;18.90;58.30
64705;DHT22;51131;52.298;13.686;2023-04-25T03:57:51;18.90;58.00
64705;DHT22;51131;52.298;13.686;2023-04-25T04:00:17;18.90;58.90
64705;DHT22;51131;52.298;13.686;2023-04-25T04:02:44;18.80;58.40
64705;DHT22;51131;52.298;13.686;2023-04-25T04:05:11;18.90;58.10
64705;DHT22;51131;52.298;13.686;2023-04-25T04:07:38;18.90;57.90
64705;DHT22;51131;52.298;13.686;2023-04-25T04:10:06;18.90;58.20
64705;DHT22;51131;52.298;13.686;2023-04-25T04:12:34;18.80;58.20
64705;DHT22;51131;52.298;13.686;2023-04-25T04:15:01;19.00;58.40
64705;DHT22;51131;52.298;13.686;2023-04-25T04:17:27;18.90;57.70
64705;DHT22;51131;52.298;13.686;2023-04-25T04:19:54;18.90;58.00
64705;DHT22;51131;52.298;13.686;2023-04-25T04:22:21;18.90;57.70
64705;DHT22;51131;52.298;13.686;2023-04-25T04:24:48;18.90;57.90
64705;DHT22;51131;52.298;13.686;2023-04-25T04:27:19;18.80;57.80
64705;DHT22;51131;52.298;13.686;2023-04-25T04:29:46;18.80;57.50
64705;DHT22;51131;52.298;13.686;2023-04-25T04:32:13;18.80;58.10
64705;DHT22;51131;52.298;13.686;2023-04-25T04:34:40;18.80;58.70
64705;DHT22;51131;52.298;13.686;2023-04-25T04:37:07;18.90;58.40
64705;DHT22;51131;52.298;13.686;2023-04-25T04:39:34;18.90;58.50
64705;DHT22;51131;52.298;13.686;2023-04-25T04:42:00;18.90;58.50
64705;DHT22;51131;52.298;13.686;2023-04-25T04:44:31;19.00;57.90
64705;DHT22;51131;52.298;13.686;2023-04-25T04:47:01;19.00;57.40
64705;DHT22;51131;52.298;13.686;2023-04-25T04:49:30;19.10;57.10
64705;DHT22;51131;52.298;13.686;2023-04-25T04:51:56;19.20;56.90
64705;DHT22;51131;52.298;13.686;2023-04-25T04:54:25;19.20;56.90
64705;DHT22;51131;52.298;13.686;2023-04-25T04:56:51;19.20;56.90
64705;DHT22;51131;52.298;13.686;2023-04-25T04:59:19;19.20;56.90
64705;DHT22;51131;52.298;13.686;2023-04-25T05:01:45;19.60;57.60
64705;DHT22;51131;52.298;13.686;2023-04-25T05:04:13;19.10;57.10
64705;DHT22;51131;52.298;13.686;2023-04-25T05:06:40;19.10;56.90
64705;DHT22;51131;52.298;13.686;2023-04-25T05:09:06;19.10;57.40
64705;DHT22;51131;52.298;13.686;2023-04-25T05:11:33;19.00;56.70
64705;DHT22;51131;52.298;13.686;2023-04-25T05:14:00;19.00;56.90
64705;DHT22;51131;52.298;13.686;2023-04-25T05:16:26;19.00;57.70
64705;DHT22;51131;52.298;13.686;2023-04-25T05:18:53;18.90;57.30
64705;DHT22;51131;52.298;13.686;2023-04-25T05:21:20;19.10;58.00
64705;DHT22;51131;52.298;13.686;2023-04-25T05:23:46;18.90;57.70
64705;DHT22;51131;52.298;13.686;2023-04-25T05:26:13;19.00;57.80
64705;DHT22;51131;52.298;13.686;2023-04-25T05:28:40;19.00;57.90
64705;DHT22;51131;52.298;13.686;2023-04-25T05:31:11;19.00;57.80
64705;DHT22;51131;52.298;13.686;2023-04-25T05:33:38;19.00;57.70
64705;DHT22;51131;52.298;13.686;2023-04-25T05:36:04;19.00;57.60
64705;DHT22;51131;52.298;13.686;2023-04-25T05:38:31;18.90;57.50
64705;DHT22;51131;52.298;13.686;2023-04-25T05:41:00;18.90;57.30
64705;DHT22;51131;52.298;13.686;2023-04-25T05:43:27;18.90;58.00
64705;DHT22;51131;52.298;13.686;2023-04-25T05:45:53;18.80;57.70
64705;DHT22;51131;52.298;13.686;2023-04-25T05:48:20;18.90;57.30
64705;DHT22;51131;52.298;13.686;2023-04-25T05:50:47;18.90;57.70
64705;DHT22;51131;52.298;13.686;2023-04-25T05:53:13;18.90;57.10
64705;DHT22;51131;52.298;13.686;2023-04-25T05:55:40;18.90;57.50
64705;DHT22;51131;52.298;13.686;2023-04-25T05:58:07;18.90;58.20
64705;DHT22;51131;52.298;13.686;2023-04-25T06:00:33;18.90;57.80
64705;DHT22;51131;52.298;13.686;2023-04-25T06:03:00;18.90;57.70
64705;DHT22;51131;52.298;13.686;2023-04-25T06:05:28;18.90;57.80
64705;DHT22;51131;52.298;13.686;2023-04-25T06:07:55;18.90;57.30
64705;DHT22;51131;52.298;13.686;2023-04-25T06:10:21;18.90;57.50
64705;DHT22;51131;52.298;13.686;2023-04-25T06:12:49;18.90;57.60
64705;DHT22;51131;52.298;13.686;2023-04-25T06:15:15;18.90;57.80
64705;DHT22;51131;52.298;13.686;2023-04-25T06:17:54;18.90;57.30
64705;DHT22;51131;52.298;13.686;2023-04-25T06:20:21;19.00;57.90
64705;DHT22;51131;52.298;13.686;2023-04-25T06:22:50;19.00;58.10
64705;DHT22;51131;52.298;13.686;2023-04-25T06:25:18;19.50;57.90
64705;DHT22;51131;52.298;13.686;2023-04-25T06:27:44;18.90;57.80
64705;DHT22;51131;52.298;13.686;2023-04-25T06:30:11;18.90;57.80
64705;DHT22;51131;52.298;13.686;2023-04-25T06:32:41;18.90;57.50
64705;DHT22;51131;52.298;13.686;2023-04-25T06:35:08;19.50;57.80
64705;DHT22;51131;52.298;13.686;2023-04-25T06:37:35;18.90;58.00
64705;DHT22;51131;52.298;13.686;2023-04-25T06:40:01;19.70;58.90
64705;DHT22;51131;52.298;13.686;2023-04-25T06:42:28;19.00;58.00
64705;DHT22;51131;52.298;13.686;2023-04-25T06:44:55;19.00;57.40
64705;DHT22;51131;52.298;13.686;2023-04-25T06:47:22;19.10;57.30
64705;DHT22;51131;52.298;13.686;2023-04-25T06:49:49;19.20;57.10
64705;DHT22;51131;52.298;13.686;2023-04-25T06:52:15;19.30;56.70
64705;DHT22;51131;52.298;13.686;2023-04-25T06:54:44;19.40;57.00
64705;DHT22;51131;52.298;13.686;2023-04-25T06:57:11;19.30;56.60
64705;DHT22;51131;52.298;13.686;2023-04-25T06:59:38;19.30;56.60
64705;DHT22;51131;52.298;13.686;2023-04-25T07:02:05;19.30;57.00
64705;DHT22;51131;52.298;13.686;2023-04-25T07:04:32;19.30;56.80
64705;DHT22;51131;52.298;13.686;2023-04-25T07:06:59;19.40;56.70
64705;DHT22;51131;52.298;13.686;2023-04-25T07:09:27;19.40;56.70
64705;DHT22;51131;52.298;13.686;2023-04-25T07:11:53;19.20;56.70
64705;DHT22;51131;52.298;13.686;2023-04-25T07:14:20;19.20;56.80
64705;DHT22;51131;52.298;13.686;2023-04-25T07:16:47;19.10;56.80
64705;DHT22;51131;52.298;13.686;2023-04-25T07:19:13;19.30;57.30
64705;DHT22;51131;52.298;13.686;2023-04-25T07:21:40;19.00;56.90
64705;DHT22;51131;52.298;13.686;2023-04-25T07:24:07;19.10;57.10
64705;DHT22;51131;52.298;13.686;2023-04-25T07:26:33;19.10;57.10
64705;DHT22;51131;52.298;13.686;2023-04-25T07:29:00;19.00;57.70
64705;DHT22;51131;52.298;13.686;2023-04-25T07:31:27;19.00;57.40
64705;DHT22;51131;52.298;13.686;2023-04-25T07:33:54;19.00;57.30
64705;DHT22;51131;52.298;13.686;2023-04-25T07:36:20;19.60;58.00
64705;DHT22;51131;52.298;13.686;2023-04-25T07:38:47;19.00;57.60
64705;DHT22;51131;52.298;13.686;2023-04-25T07:41:14;19.50;58.20
64705;DHT22;51131;52.298;13.686;2023-04-25T07:43:41;19.00;57.80
64705;DHT22;51131;52.298;13.686;2023-04-25T07:46:08;19.10;57.40
64705;DHT22;51131;52.298;13.686;2023-04-25T07:48:35;19.00;57.70
64705;DHT22;51131;52.298;13.686;2023-04-25T07:51:01;19.20;57.80
64705;DHT22;51131;52.298;13.686;2023-04-25T07:53:28;19.10;57.40
64705;DHT22;51131;52.298;13.686;2023-04-25T07:55:54;19.00;57.20
64705;DHT22;51131;52.298;13.686;2023-04-25T07:58:21;19.10;57.70
64705;DHT22;51131;52.298;13.686;2023-04-25T08:00:48;19.10;57.70
64705;DHT22;51131;52.298;13.686;2023-04-25T08:03:16;19.10;57.60
64705;DHT22;51131;52.298;13.686;2023-04-25T08:05:43;19.10;57.60
64705;DHT22;51131;52.298;13.686;2023-04-25T08:08:10;19.00;57.70
64705;DHT22;51131;52.298;13.686;2023-04-25T08:10:37;19.00;57.70
64705;DHT22;51131;52.298;13.686;2023-04-25T08:13:03;19.00;57.70
64705;DHT22;51131;52.298;13.686;2023-04-25T08:15:30;19.00;57.80
64705;DHT22;51131;52.298;13.686;2023-04-25T08:17:57;19.20;58.40
64705;DHT22;51131;52.298;13.686;2023-04-25T08:20:23;19.20;58.30
64705;DHT22;51131;52.298;13.686;2023-04-25T08:22:51;19.00;58.00
64705;DHT22;51131;52.298;13.686;2023-04-25T08:25:18;19.00;58.10
64705;DHT22;51131;52.298;13.686;2023-04-25T08:27:44;19.00;57.90
64705;DHT22;51131;52.298;13.686;2023-04-25T08:30:11;19.20;58.20
64705;DHT22;51131;52.298;13.686;2023-04-25T08:32:38;19.00;57.80
64705;DHT22;51131;52.298;13.686;2023-04-25T08:35:05;19.30;58.10
64705;DHT22;51131;52.298;13.686;2023-04-25T08:37:32;19.00;58.50
64705;DHT22;51131;52.298;13.686;2023-04-25T08:39:59;19.00;57.90
64705;DHT22;51131;52.298;13.686;2023-04-25T08:42:26;19.00;58.30
64705;DHT22;51131;52.298;13.686;2023-04-25T08:44:53;19.00;58.00
64705;DHT22;51131;52.298;13.686;2023-04-25T08:47:21;19.00;57.90
64705;DHT22;51131;52.298;13.686;2023-04-25T08:49:48;19.10;58.20
64705;DHT22;51131;52.298;13.686;2023-04-25T08:52:16;18.80;58.10
64705;DHT22;51131;52.298;13.686;2023-04-25T08:54:47;19.30;58.30
64705;DHT22;51131;52.298;13.686;2023-04-25T08:57:16;19.00;58.10
64705;DHT22;51131;52.298;13.686;2023-04-25T08:59:43;19.10;58.10
64705;DHT22;51131;52.298;13.686;2023-04-25T09:02:12;19.00;58.10
64705;DHT22;51131;52.298;13.686;2023-04-25T09:04:44;19.00;57.90
64705;DHT22;51131;52.298;13.686;2023-04-25T09:07:11;18.90;58.10
64705;DHT22;51131;52.298;13.686;2023-04-25T09:09:38;19.00;58.10
64705;DHT22;51131;52.298;13.686;2023-04-25T09:12:05;19.00;58.40
64705;DHT22;51131;52.298;13.686;2023-04-25T09:14:32;18.90;57.90
64705;DHT22;51131;52.298;13.686;2023-04-25T09:17:00;19.00;58.30
64705;DHT22;51131;52.298;13.686;2023-04-25T09:19:31;19.00;58.10
64705;DHT22;51131;52.298;13.686;2023-04-25T09:22:06;18.90;58.00
64705;DHT22;51131;52.298;13.686;2023-04-25T09:27:02;19.30;58.60
64705;DHT22;51131;52.298;13.686;2023-04-25T09:29:33;19.10;58.00
64705;DHT22;51131;52.298;13.686;2023-04-25T09:34:57;19.20;57.50
64705;DHT22;51131;52.298;13.686;2023-04-25T09:37:28;19.20;57.30
64705;DHT22;51131;52.298;13.686;2023-04-25T09:39:55;19.30;57.60
64705;DHT22;51131;52.298;13.686;2023-04-25T09:42:23;19.30;57.60
64705;DHT22;51131;52.298;13.686;2023-04-25T09:44:51;19.50;57.70
64705;DHT22;51131;52.298;13.686;2023-04-25T09:47:18;19.30;57.60
64705;DHT22;51131;52.298;13.686;2023-04-25T09:49:47;19.50;57.90
64705;DHT22;51131;52.298;13.686;2023-04-25T09:52:15;19.20;57.60
64705;DHT22;51131;52.298;13.686;2023-04-25T09:54:46;19.60;58.20
64705;DHT22;51131;52.298;13.686;2023-04-25T09:57:14;19.60;58.10
64705;DHT22;51131;52.298;13.686;2023-04-25T09:59:43;19.60;58.20
64705;DHT22;51131;52.298;13.686;2023-04-25T10:02:10;19.10;57.90
64705;DHT22;51131;52.298;13.686;2023-04-25T10:04:37;19.40;57.80
64705;DHT22;51131;52.298;13.686;2023-04-25T10:07:05;19.10;57.70
64705;DHT22;51131;52.298;13.686;2023-04-25T10:09:32;19.10;57.90
64705;DHT22;51131;52.298;13.686;2023-04-25T10:12:02;19.10;57.50
64705;DHT22;51131;52.298;13.686;2023-04-25T10:14:30;19.10;57.30
64705;DHT22;51131;52.298;13.686;2023-04-25T10:16:57;19.30;57.20
64705;DHT22;51131;52.298;13.686;2023-04-25T10:19:24;19.10;57.10
64705;DHT22;51131;52.298;13.686;2023-04-25T10:21:52;19.20;57.50
64705;DHT22;51131;52.298;13.686;2023-04-25T10:24:20;19.40;57.90
64705;DHT22;51131;52.298;13.686;2023-04-25T10:26:47;19.10;57.20
64705;DHT22;51131;52.298;13.686;2023-04-25T10:29:21;19.10;57.50
64705;DHT22;51131;52.298;13.686;2023-04-25T10:31:48;19.10;57.70
64705;DHT22;51131;52.298;13.686;2023-04-25T10:34:15;19.50;57.40
64705;DHT22;51131;52.298;13.686;2023-04-25T10:36:42;19.00;57.10
64705;DHT22;51131;52.298;13.686;2023-04-25T10:39:09;19.20;57.70
64705;DHT22;51131;52.298;13.686;2023-04-25T10:41:51;19.60;58.40
64705;DHT22;51131;52.298;13.686;2023-04-25T10:44:18;19.00;57.20
64705;DHT22;51131;52.298;13.686;2023-04-25T10:46:45;19.10;57.20
64705;DHT22;51131;52.298;13.686;2023-04-25T10:54:46;19.00;57.30
64705;DHT22;51131;52.298;13.686;2023-04-25T11:00:05;19.00;57.00
64705;DHT22;51131;52.298;13.686;2023-04-25T11:02:40;19.00;56.90
64705;DHT22;51131;52.298;13.686;2023-04-25T11:05:07;19.00;57.10
64705;DHT22;51131;52.298;13.686;2023-04-25T11:10:04;19.00;57.60
64705;DHT22;51131;52.298;13.686;2023-04-25T11:12:32;19.00;57.30
64705;DHT22;51131;52.298;13.686;2023-04-25T11:15:07;19.20;57.70
64705;DHT22;51131;52.298;13.686;2023-04-25T11:17:34;19.00;57.60
64705;DHT22;51131;52.298;13.686;2023-04-25T11:20:02;19.60;57.50
64705;DHT22;51131;52.298;13.686;2023-04-25T11:22:33;19.00;56.80
64705;DHT22;51131;52.298;13.686;2023-04-25T11:25:04;19.30;57.50
64705;DHT22;51131;52.298;13.686;2023-04-25T11:27:31;19.00;57.50
64705;DHT22;51131;52.298;13.686;2023-04-25T11:29:57;19.00;57.30
64705;DHT22;51131;52.298;13.686;2023-04-25T11:32:24;19.30;58.00
64705;DHT22;51131;52.298;13.686;2023-04-25T11:34:53;19.10;57.70
64705;DHT22;51131;52.298;13.686;2023-04-25T11:37:20;19.30;58.00
64705;DHT22;51131;52.298;13.686;2023-04-25T11:39:47;19.00;57.70
64705;DHT22;51131;52.298;13.686;2023-04-25T11:42:14;19.20;57.40
64705;DHT22;51131;52.298;13.686;2023-04-25T11:44:40;19.00;57.20
64705;DHT22;51131;52.298;13.686;2023-04-25T11:47:07;19.30;57.40
64705;DHT22;51131;52.298;13.686;2023-04-25T11:49:34;19.60;57.90
64705;DHT22;51131;52.298;13.686;2023-04-25T11:52:02;19.30;57.90
64705;DHT22;51131;52.298;13.686;2023-04-25T11:54:34;19.40;58.30
64705;DHT22;51131;52.298;13.686;2023-04-25T11:57:01;19.50;58.70
64705;DHT22;51131;52.298;13.686;2023-04-25T11:59:27;19.20;57.60
64705;DHT22;51131;52.298;13.686;2023-04-25T12:01:54;19.20;57.10
64705;DHT22;51131;52.298;13.686;2023-04-25T12:04:22;19.30;56.90
64705;DHT22;51131;52.298;13.686;2023-04-25T12:06:51;19.30;56.30
64705;DHT22;51131;52.298;13.686;2023-04-25T12:09:19;19.60;56.30
64705;DHT22;51131;52.298;13.686;2023-04-25T12:11:48;19.30;56.30
64705;DHT22;51131;52.298;13.686;2023-04-25T12:14:22;19.30;56.20
64705;DHT22;51131;52.298;13.686;2023-04-25T12:16:50;19.30;56.40
64705;DHT22;51131;52.298;13.686;2023-04-25T12:19:18;19.30;56.80
64705;DHT22;51131;52.298;13.686;2023-04-25T12:21:45;19.30;56.60
64705;DHT22;51131;52.298;13.686;2023-04-25T12:24:24;19.20;56.50
64705;DHT22;51131;52.298;13.686;2023-04-25T12:27:01;19.20;56.80
64705;DHT22;51131;52.298;13.686;2023-04-25T12:29:30;19.20;57.10
64705;DHT22;51131;52.298;13.686;2023-04-25T12:32:07;19.10;57.60
64705;DHT22;51131;52.298;13.686;2023-04-25T12:34:34;19.80;57.40
64705;DHT22;51131;52.298;13.686;2023-04-25T12:37:02;19.20;57.40
64705;DHT22;51131;52.298;13.686;2023-04-25T12:39:29;19.10;56.90
64705;DHT22;51131;52.298;13.686;2023-04-25T12:41:55;19.80;57.80
64705;DHT22;51131;52.298;13.686;2023-04-25T12:44:22;19.10;57.10
64705;DHT22;51131;52.298;13.686;2023-04-25T12:46:48;19.20;57.10
64705;DHT22;51131;52.298;13.686;2023-04-25T12:49:16;19.20;57.10
64705;DHT22;51131;52.298;13.686;2023-04-25T12:51:44;19.20;57.00
64705;DHT22;51131;52.298;13.686;2023-04-25T12:54:11;19.10;57.10
64705;DHT22;51131;52.298;13.686;2023-04-25T12:56:38;19.40;57.30
64705;DHT22;51131;52.298;13.686;2023-04-25T12:59:05;19.20;57.20
64705;DHT22;51131;52.298;13.686;2023-04-25T13:01:31;19.10;57.10
64705;DHT22;51131;52.298;13.686;2023-04-25T13:04:01;19.20;57.10
64705;DHT22;51131;52.298;13.686;2023-04-25T13:06:28;19.00;56.90
64705;DHT22;51131;52.298;13.686;2023-04-25T13:08:56;19.60;57.70
64705;DHT22;51131;52.298;13.686;2023-04-25T13:11:23;19.00;56.90
64705;DHT22;51131;52.298;13.686;2023-04-25T13:13:50;19.10;56.70
64705;DHT22;51131;52.298;13.686;2023-04-25T13:16:17;19.00;56.70
64705;DHT22;51131;52.298;13.686;2023-04-25T13:18:45;19.10;56.70
64705;DHT22;51131;52.298;13.686;2023-04-25T13:21:12;19.00;56.90
64705;DHT22;51131;52.298;13.686;2023-04-25T13:23:38;19.10;56.10
64705;DHT22;51131;52.298;13.686;2023-04-25T13:26:05;19.00;56.30
64705;DHT22;51131;52.298;13.686;2023-04-25T13:28:32;19.00;56.70
64705;DHT22;51131;52.298;13.686;2023-04-25T13:30:59;19.00;56.20
64705;DHT22;51131;52.298;13.686;2023-04-25T13:33:25;19.00;56.40
64705;DHT22;51131;52.298;13.686;2023-04-25T13:35:52;19.00;56.90
64705;DHT22;51131;52.298;13.686;2023-04-25T13:38:23;19.00;56.30
64705;DHT22;51131;52.298;13.686;2023-04-25T13:40:51;19.20;57.20
64705;DHT22;51131;52.298;13.686;2023-04-25T13:43:21;19.20;56.80
64705;DHT22;51131;52.298;13.686;2023-04-25T13:45:48;19.00;56.30
64705;DHT22;51131;52.298;13.686;2023-04-25T13:48:15;19.00;56.40
64705;DHT22;51131;52.298;13.686;2023-04-25T13:50:42;19.00;56.40
64705;DHT22;51131;52.298;13.686;2023-04-25T13:53:08;19.40;56.80
64705;DHT22;51131;52.298;13.686;2023-04-25T13:55:35;19.00;56.60
64705;DHT22;51131;52.298;13.686;2023-04-25T13:58:05;19.00;56.30
64705;DHT22;51131;52.298;13.686;2023-04-25T14:00:37;19.00;56.80
64705;DHT22;51131;52.298;13.686;2023-04-25T14:03:08;19.00;56.20
64705;DHT22;51131;52.298;13.686;2023-04-25T14:05:36;19.40;57.00
64705;DHT22;51131;52.298;13.686;2023-04-25T14:08:07;19.30;57.20
64705;DHT22;51131;52.298;13.686;2023-04-25T14:10:34;19.00;56.90
64705;DHT22;51131;52.298;13.686;2023-04-25T14:13:01;19.40;57.70
64705;DHT22;51131;52.298;13.686;2023-04-25T14:15:32;19.40;56.70
64705;DHT22;51131;52.298;13.686;2023-04-25T14:17:59;19.00;56.70
64705;DHT22;51131;52.298;13.686;2023-04-25T14:20:26;19.00;56.50
64705;DHT22;51131;52.298;13.686;2023-04-25T14:22:53;19.00;57.10
64705;DHT22;51131;52.298;13.686;2023-04-25T14:25:22;19.00;56.60
64705;DHT22;51131;52.298;13.686;2023-04-25T14:27:49;19.30;56.50
64705;DHT22;51131;52.298;13.686;2023-04-25T14:30:17;19.20;55.90
64705;DHT22;51131;52.298;13.686;2023-04-25T14:32:44;19.30;55.20
64705;DHT22;51131;52.298;13.686;2023-04-25T14:35:11;19.30;55.50
64705;DHT22;51131;52.298;13.686;2023-04-25T14:37:38;19.60;56.00
64705;DHT22;51131;52.298;13.686;2023-04-25T14:40:08;19.20;55.40
64705;DHT22;51131;52.298;13.686;2023-04-25T14:42:37;19.20;55.30
64705;DHT22;51131;52.298;13.686;2023-04-25T14:45:04;19.20;55.90
64705;DHT22;51131;52.298;13.686;2023-04-25T14:47:31;19.20;56.00
64705;DHT22;51131;52.298;13.686;2023-04-25T14:49:58;19.20;55.70
64705;DHT22;51131;52.298;13.686;2023-04-25T14:52:25;19.20;55.60
64705;DHT22;51131;52.298;13.686;2023-04-25T14:54:52;19.20;55.40
64705;DHT22;51131;52.298;13.686;2023-04-25T14:57:18;19.20;55.20
64705;DHT22;51131;52.298;13.686;2023-04-25T14:59:45;19.10;55.30
64705;DHT22;51131;52.298;13.686;2023-04-25T15:02:12;19.60;55.80
64705;DHT22;51131;52.298;13.686;2023-04-25T15:04:38;19.10;56.30
64705;DHT22;51131;52.298;13.686;2023-04-25T15:07:05;19.10;55.90
64705;DHT22;51131;52.298;13.686;2023-04-25T15:09:32;19.10;56.00
64705;DHT22;51131;52.298;13.686;2023-04-25T15:11:58;19.10;55.90
64705;DHT22;51131;52.298;13.686;2023-04-25T15:14:25;19.10;55.90
64705;DHT22;51131;52.298;13.686;2023-04-25T15:16:52;19.10;55.60
64705;DHT22;51131;52.298;13.686;2023-04-25T15:19:19;19.00;55.10
64705;DHT22;51131;52.298;13.686;2023-04-25T15:21:46;19.20;55.80
64705;DHT22;51131;52.298;13.686;2023-04-25T15:24:12;19.00;55.30
64705;DHT22;51131;52.298;13.686;2023-04-25T15:26:41;19.10;56.40
64705;DHT22;51131;52.298;13.686;2023-04-25T15:29:08;19.20;55.70
64705;DHT22;51131;52.298;13.686;2023-04-25T15:31:34;19.60;56.30